Time;durP1;ratioP1;P1;durP2;ratioP2;P2;SDS_P1;SDS_P2;PMS_P1;PMS_P2;Temp;Humidity;BMP_temperature;BMP_pressure;BME280_temperature;BME280_humidity;BME280_pressure;Samples;Min_cycle;Max_cycle;Signal;HPM_P1;HPM_P2
2021/01/21 14:11:55;;;;;;;6.30;1.40;;;7.20;90.70;;;;;;5072327;28;20393;-78
2021/01/21 14:14:21;;;;;;;14.07;1.60;;;7.30;90.70;;;;;;5056919;28;20022;-78
2021/01/21 14:16:50;;;;;;;6.32;1.50;;;7.40;90.60;;;;;;5040266;28;20033;-78
2021/01/21 14:19:16;;;;;;;4.25;1.65;;;7.30;91.00;;;;;;5059099;28;20021;-77
2021/01/21 14:45:00;;;;;;;20.48;2.33;;;7.30;90.70;;;;;;6059474;23;20049;-78
2021/01/21 17:22:47;;;;;;;10.32;2.65;;;6.20;92.60;;;;;;5346512;22;20054;-82
2021/01/21 17:25:13;;;;;;;8.20;1.50;;;6.10;92.70;;;;;;4997932;28;20018;-83
2021/01/21 17:27:39;;;;;;;;;;;6.10;92.70;;;;;;5014793;28;20028;-83
2021/01/21 17:30:06;;;;;;;9.38;1.67;;;6.10;93.00;;;;;;4992921;28;19913;-81
2021/01/21 17:32:32;;;;;;;9.77;1.65;;;6.00;92.90;;;;;;5013099;28;20048;-82
2021/01/21 17:35:00;;;;;;;6.82;1.73;;;6.00;93.00;;;;;;5001488;28;20482;-83
2021/01/21 17:37:26;;;;;;;13.60;2.38;;;6.00;92.80;;;;;;5010716;28;20022;-83
2021/01/21 17:39:52;;;;;;;7.47;2.35;;;6.00;92.90;;;;;;5009831;28;20025;-82
2021/01/21 17:42:17;;;;;;;12.02;2.00;;;6.00;92.80;;;;;;5010766;28;20038;-82
2021/01/21 17:44:43;;;;;;;6.60;1.48;;;6.00;93.30;;;;;;5011202;28;20017;-82
2021/01/21 17:47:09;;;;;;;12.45;1.55;;;6.00;93.40;;;;;;5011098;28;20030;-83
2021/01/21 17:49:35;;;;;;;10.02;2.03;;;5.90;93.10;;;;;;4996944;28;20024;-83
2021/01/21 17:52:00;;;;;;;9.63;1.58;;;5.90;93.50;;;;;;4993280;28;20026;-84
2021/01/21 17:54:27;;;;;;;8.30;2.03;;;5.80;93.90;;;;;;4993790;28;20026;-84
2021/01/21 17:56:53;;;;;;;13.88;2.00;;;5.80;94.00;;;;;;4993644;28;20041;-84
2021/01/21 17:59:19;;;;;;;7.70;2.45;;;5.90;93.70;;;;;;4993229;28;20030;-84
2021/01/21 18:01:45;;;;;;;7.93;2.38;;;5.80;93.80;;;;;;4980174;28;20030;-83
2021/01/21 18:04:11;;;;;;;8.80;2.10;;;5.80;93.70;;;;;;4985734;28;20030;-83
2021/01/21 18:06:36;;;;;;;9.27;2.95;;;5.70;94.70;;;;;;5006690;28;21018;-84
2021/01/21 18:09:05;;;;;;;11.93;2.83;;;5.70;94.70;;;;;;5001647;28;20064;-83
2021/01/21 18:11:30;;;;;;;12.82;2.50;;;5.60;94.80;;;;;;5004715;28;20057;-84
2021/01/21 18:13:56;;;;;;;17.77;4.80;;;5.60;95.00;;;;;;5002035;28;20057;-84
2021/01/21 18:16:22;;;;;;;13.77;3.40;;;5.60;95.10;;;;;;4987012;28;20387;-84
2021/01/21 18:18:47;;;;;;;12.73;3.38;;;5.50;95.30;;;;;;5002906;28;20033;-82
2021/01/21 18:21:14;;;;;;;10.05;3.15;;;5.40;95.40;;;;;;4993532;28;20034;-82
2021/01/21 18:23:43;;;;;;;11.27;3.97;;;5.30;95.70;;;;;;5007892;28;20061;-83
2021/01/21 18:26:08;;;;;;;18.73;4.68;;;5.30;95.60;;;;;;5004831;28;20076;-83
2021/01/21 18:28:34;;;;;;;15.75;5.18;;;5.20;95.80;;;;;;5007458;28;20030;-83
2021/01/21 18:31:00;;;;;;;29.55;6.75;;;5.20;96.10;;;;;;5010487;28;20038;-84
2021/01/21 18:33:26;;;;;;;16.02;3.95;;;5.20;95.70;;;;;;4992724;28;20025;-84
2021/01/21 18:35:52;;;;;;;13.15;4.55;;;5.20;96.00;;;;;;5004800;28;20034;-85
2021/01/21 18:38:18;;;;;;;16.60;4.25;;;5.10;95.80;;;;;;5001577;28;20356;-85
2021/01/21 18:40:43;;;;;;;12.77;4.40;;;5.00;95.90;;;;;;5010744;28;20056;-84
2021/01/21 18:43:09;;;;;;;16.48;5.47;;;4.90;96.10;;;;;;5009417;28;20022;-86
2021/01/21 18:45:36;;;;;;;20.15;5.25;;;4.80;96.20;;;;;;4989043;28;20026;-84
2021/01/21 18:48:02;;;;;;;17.40;5.13;;;4.70;96.70;;;;;;5001811;28;20024;-84
2021/01/21 18:50:28;;;;;;;16.25;5.50;;;4.60;96.70;;;;;;5003269;28;20025;-84
2021/01/21 18:52:54;;;;;;;19.40;5.03;;;4.60;96.90;;;;;;4993524;28;20030;-86
2021/01/21 18:55:19;;;;;;;16.10;4.95;;;4.60;96.90;;;;;;4992741;28;20117;-84
2021/01/21 18:57:45;;;;;;;17.20;5.40;;;4.50;96.80;;;;;;5010849;28;20026;-84
2021/01/21 19:00:12;;;;;;;15.85;5.82;;;4.40;97.10;;;;;;5006881;28;20136;-85
2021/01/21 19:02:39;;;;;;;17.05;5.65;;;4.40;97.50;;;;;;5002257;28;20537;-84
2021/01/21 19:05:06;;;;;;;20.48;5.30;;;4.40;97.60;;;;;;5007674;28;20026;-85
2021/01/21 19:07:32;;;;;;;21.13;7.57;;;4.40;97.60;;;;;;5014568;28;20438;-83
2021/01/21 19:09:58;;;;;;;15.15;5.38;;;4.30;97.50;;;;;;5004627;28;20034;-83
2021/01/21 19:12:24;;;;;;;16.95;7.85;;;4.20;97.50;;;;;;5008060;28;20033;-79
2021/01/21 19:14:50;;;;;;;29.55;8.55;;;4.10;97.60;;;;;;5011518;28;20034;-80
2021/01/21 19:17:16;;;;;;;;;;;4.10;97.70;;;;;;4995759;28;20132;-77
2021/01/21 19:19:43;;;;;;;21.58;7.03;;;4.10;97.80;;;;;;5005891;28;20021;-82
2021/01/21 19:22:09;;;;;;;21.63;7.15;;;4.10;97.70;;;;;;5013147;28;20037;-84
2021/01/21 19:24:35;;;;;;;21.88;6.80;;;4.10;98.10;;;;;;4994846;28;20033;-85
2021/01/21 19:27:01;;;;;;;;;;;4.00;97.70;;;;;;5009261;28;20395;-85
2021/01/21 19:29:26;;;;;;;25.48;8.35;;;3.90;97.60;;;;;;4994644;28;19909;-85
2021/01/21 19:31:52;;;;;;;29.20;10.38;;;3.80;97.90;;;;;;4996634;28;20080;-84
2021/01/21 19:34:18;;;;;;;23.33;9.43;;;3.80;97.90;;;;;;4996584;28;20128;-86
2021/01/21 19:36:44;;;;;;;32.63;10.80;;;3.70;98.10;;;;;;5012953;28;20042;-85
2021/01/21 19:39:10;;;;;;;29.00;10.52;;;3.70;98.00;;;;;;4979863;28;20058;-85
2021/01/21 19:41:36;;;;;;;34.30;11.05;;;3.60;98.10;;;;;;5005313;28;20065;-86
2021/01/21 19:44:02;;;;;;;24.13;10.60;;;3.60;98.30;;;;;;4992300;28;20553;-85
2021/01/21 19:46:29;;;;;;;29.02;11.30;;;3.60;98.90;;;;;;4981391;28;20395;-86
2021/01/21 19:48:55;;;;;;;20.60;7.93;;;3.70;98.70;;;;;;4984263;28;20369;-87
2021/01/21 19:51:21;;;;;;;;;;;3.90;98.40;;;;;;4997063;28;20030;-87
2021/01/21 19:53:47;;;;;;;17.80;6.38;;;4.00;98.10;;;;;;4993399;28;20020;-85
2021/01/21 19:56:13;;;;;;;18.00;7.60;;;4.00;97.90;;;;;;5010204;28;20031;-85
2021/01/21 19:58:38;;;;;;;;;;;3.90;97.80;;;;;;5021974;28;20025;-86
2021/01/21 20:01:05;;;;;;;16.08;7.38;;;3.90;97.70;;;;;;5013676;28;19968;-86
2021/01/21 20:03:31;;;;;;;26.80;12.98;;;3.90;97.60;;;;;;5012931;28;20018;-87
2021/01/21 20:05:57;;;;;;;26.27;7.35;;;3.90;97.60;;;;;;5004539;28;20088;-86
2021/01/21 20:08:23;;;;;;;18.63;8.68;;;3.80;97.60;;;;;;5024296;28;20825;-86
2021/01/21 20:10:50;;;;;;;22.05;7.07;;;3.90;97.50;;;;;;5005680;28;20049;-86
2021/01/21 20:13:20;;;;;;;12.82;5.68;;;4.00;97.40;;;;;;4992173;28;20054;-86
2021/01/21 20:15:49;;;;;;;13.82;6.10;;;3.90;97.40;;;;;;5013029;28;20041;-85
2021/01/21 20:18:18;;;;;;;23.92;7.50;;;3.90;97.40;;;;;;4993101;28;20021;-85
2021/01/21 20:20:48;;;;;;;18.77;7.45;;;3.90;97.20;;;;;;5000978;28;20028;-85
2021/01/21 20:23:14;;;;;;;30.35;7.75;;;3.90;97.30;;;;;;4996405;28;20407;-86
2021/01/21 20:25:39;;;;;;;21.38;7.03;;;3.90;97.30;;;;;;5009273;28;20033;-86
2021/01/21 20:28:05;;;;;;;23.38;9.77;;;3.80;97.40;;;;;;5026445;28;20033;-85
2021/01/21 20:30:31;;;;;;;30.63;12.20;;;3.80;97.40;;;;;;5000394;28;20037;-85
2021/01/21 20:32:57;;;;;;;21.00;8.43;;;3.80;97.60;;;;;;5024032;28;20107;-85
2021/01/21 20:35:23;;;;;;;13.07;6.18;;;3.80;97.60;;;;;;5000448;28;20026;-87
2021/01/21 20:37:48;;;;;;;17.38;7.30;;;3.80;97.50;;;;;;5024033;28;20382;-86
2021/01/21 20:40:14;;;;;;;20.02;7.50;;;3.70;97.40;;;;;;5023025;28;20010;-86
2021/01/21 20:42:40;;;;;;;24.08;8.50;;;3.60;97.40;;;;;;5024184;28;20036;-85
2021/01/21 20:45:07;;;;;;;23.05;7.93;;;3.60;97.50;;;;;;4999371;28;20438;-86
2021/01/21 20:47:33;;;;;;;29.77;9.23;;;3.50;97.50;;;;;;5019893;28;20505;-87
2021/01/21 20:49:59;;;;;;;36.38;11.57;;;3.40;97.40;;;;;;5000498;28;20056;-86
2021/01/21 20:52:25;;;;;;;37.83;11.07;;;3.30;98.10;;;;;;5015937;28;20440;-87
2021/01/21 20:54:50;;;;;;;24.38;7.35;;;3.40;98.10;;;;;;5028462;28;20485;-87
2021/01/21 20:57:16;;;;;;;20.52;7.05;;;3.50;97.60;;;;;;4998465;28;20022;-86
2021/01/21 20:59:42;;;;;;;17.98;5.65;;;3.50;97.60;;;;;;4991380;28;20025;-83
2021/01/21 21:02:08;;;;;;;15.65;5.97;;;3.60;97.20;;;;;;5014052;28;20017;-84
2021/01/21 21:04:33;;;;;;;16.48;6.72;;;3.70;97.10;;;;;;5023660;28;20025;-87
2021/01/21 21:07:00;;;;;;;21.15;6.25;;;3.70;97.10;;;;;;5018071;28;20033;-86
2021/01/21 21:09:26;;;;;;;12.70;5.75;;;3.60;97.30;;;;;;5014856;28;20378;-84
2021/01/21 21:11:52;;;;;;;24.65;7.03;;;3.50;97.20;;;;;;5021046;28;20332;-84
2021/01/21 21:14:18;;;;;;;16.60;6.53;;;3.50;97.00;;;;;;5022631;28;20026;-85
2021/01/21 21:16:44;;;;;;;12.07;6.65;;;3.40;97.30;;;;;;5021761;28;20026;-83
2021/01/21 21:19:10;;;;;;;16.33;7.05;;;3.30;97.20;;;;;;5032298;28;20116;-87
2021/01/21 21:21:36;;;;;;;26.23;6.90;;;3.20;97.30;;;;;;5029132;28;20101;-86
2021/01/21 21:24:02;;;;;;;21.92;6.47;;;3.10;97.50;;;;;;5021388;28;20029;-88
2021/01/21 21:26:27;;;;;;;16.05;5.78;;;3.10;97.90;;;;;;5018909;28;20113;-85
2021/01/21 21:28:53;;;;;;;16.25;7.43;;;3.10;97.80;;;;;;5017608;28;20045;-87
2021/01/21 21:31:19;;;;;;;17.20;6.30;;;3.10;98.40;;;;;;5015180;28;20646;-87
2021/01/21 21:33:44;;;;;;;12.82;6.63;;;3.20;98.60;;;;;;4991392;28;20076;-87
2021/01/21 21:36:10;;;;;;;24.02;7.00;;;3.20;98.40;;;;;;5024195;28;20021;-86
2021/01/21 21:38:36;;;;;;;14.18;5.57;;;3.20;98.40;;;;;;5007075;28;20041;-87
2021/01/21 21:41:02;;;;;;;17.63;5.50;;;3.30;98.30;;;;;;5025411;28;20034;-89
2021/01/21 21:43:27;;;;;;;18.90;8.77;;;3.30;97.90;;;;;;5006578;28;20497;-87
2021/01/21 21:45:53;;;;;;;17.17;7.18;;;3.20;97.90;;;;;;5008205;28;20030;-87
2021/01/21 21:48:19;;;;;;;15.63;6.32;;;3.20;97.90;;;;;;5025895;28;20435;-87
2021/01/21 21:50:45;;;;;;;18.17;7.78;;;3.10;98.00;;;;;;5015605;28;20041;-87
2021/01/21 21:53:11;;;;;;;;;;;3.00;98.00;;;;;;5024238;28;20097;-87
2021/01/21 21:55:37;;;;;;;20.48;6.45;;;2.90;98.10;;;;;;5025182;28;19941;-88
2021/01/21 21:58:03;;;;;;;;;;;2.80;98.10;;;;;;5015640;28;20448;-87
2021/01/21 22:00:29;;;;;;;20.92;7.00;;;2.80;98.20;;;;;;5019561;28;19905;-87
2021/01/21 22:02:54;;;;;;;;;;;2.70;98.30;;;;;;5020934;28;20029;-86
2021/01/21 22:05:20;;;;;;;29.35;8.77;;;2.60;98.20;;;;;;5029685;28;19972;-88
2021/01/21 22:07:46;;;;;;;15.43;7.13;;;2.50;98.40;;;;;;5007846;28;20033;-88
2021/01/21 22:10:14;;;;;;;33.90;8.15;;;2.50;98.40;;;;;;5022752;28;20029;-87
2021/01/21 22:12:40;;;;;;;20.17;7.35;;;2.40;98.70;;;;;;5014592;28;20119;-89
2021/01/21 22:15:07;;;;;;;17.33;7.88;;;2.40;98.90;;;;;;5006820;28;20387;-86
2021/01/21 22:17:32;;;;;;;12.88;6.63;;;2.40;99.00;;;;;;5028810;28;20030;-89
2021/01/21 22:19:58;;;;;;;23.98;6.35;;;2.40;98.90;;;;;;5021734;28;20018;-88
2021/01/21 22:22:24;;;;;;;29.33;7.22;;;2.30;98.90;;;;;;5022477;28;20073;-88
2021/01/21 22:24:49;;;;;;;28.05;7.47;;;2.30;98.90;;;;;;5007041;28;20053;-88
2021/01/21 22:27:15;;;;;;;20.63;7.28;;;2.30;99.10;;;;;;5029569;28;20049;-89
2021/01/21 22:29:41;;;;;;;23.20;6.25;;;2.40;99.50;;;;;;5021684;28;20085;-86
2021/01/21 22:32:07;;;;;;;21.15;6.82;;;2.70;99.60;;;;;;5017068;28;20053;-81
2021/01/21 22:34:32;;;;;;;24.33;6.90;;;3.00;99.20;;;;;;5016519;28;20021;-83
2021/01/21 22:36:58;;;;;;;11.02;6.40;;;3.20;98.70;;;;;;5027312;28;20034;-84
2021/01/21 22:39:24;;;;;;;17.08;6.07;;;3.30;98.30;;;;;;5028626;28;20046;-83
2021/01/21 22:41:49;;;;;;;11.77;5.40;;;3.40;97.90;;;;;;5031284;28;20037;-83
2021/01/21 22:44:16;;;;;;;12.18;5.47;;;3.40;97.80;;;;;;5009517;28;20423;-86
2021/01/21 22:46:42;;;;;;;;;;;3.40;97.60;;;;;;5004394;28;20026;-86
2021/01/21 22:49:07;;;;;;;13.48;5.90;;;3.30;97.70;;;;;;5003722;28;19905;-88
2021/01/21 22:51:33;;;;;;;14.48;6.38;;;3.20;97.70;;;;;;5023781;28;20033;-88
2021/01/21 22:53:59;;;;;;;25.63;8.60;;;3.10;97.90;;;;;;5025291;28;20029;-89
2021/01/21 22:56:25;;;;;;;20.08;7.10;;;3.10;98.30;;;;;;5018736;28;20088;-87
2021/01/21 22:58:50;;;;;;;15.55;6.95;;;3.10;98.10;;;;;;4997154;28;20052;-89
2021/01/21 23:01:16;;;;;;;22.92;6.32;;;3.10;98.40;;;;;;4993801;28;20508;-87
2021/01/21 23:03:42;;;;;;;10.77;5.78;;;3.10;98.00;;;;;;4995503;28;20030;-88
2021/01/21 23:06:08;;;;;;;20.65;5.43;;;3.00;98.20;;;;;;5021913;28;20455;-87
2021/01/21 23:08:33;;;;;;;16.80;7.18;;;3.00;98.10;;;;;;5019092;28;20088;-88
2021/01/21 23:10:59;;;;;;;15.48;6.70;;;2.90;98.30;;;;;;5018061;28;20112;-87
2021/01/21 23:13:25;;;;;;;18.83;5.93;;;3.00;98.60;;;;;;4993360;28;20026;-90
2021/01/21 23:15:50;;;;;;;13.73;5.80;;;3.00;98.50;;;;;;4999264;28;20164;-88
2021/01/21 23:18:17;;;;;;;21.13;6.85;;;3.00;98.70;;;;;;5018758;28;20072;-88
2021/01/21 23:20:43;;;;;;;17.30;4.93;;;3.10;98.60;;;;;;5023395;28;20096;-88
2021/01/21 23:23:09;;;;;;;15.18;4.78;;;3.10;98.50;;;;;;5014742;28;20034;-89
2021/01/21 23:25:36;;;;;;;11.75;5.18;;;3.20;98.50;;;;;;5014947;28;20023;-88
2021/01/21 23:28:03;;;;;;;8.95;4.47;;;3.10;98.40;;;;;;5023994;28;20057;-87
2021/01/21 23:30:29;;;;;;;14.48;5.47;;;3.10;98.50;;;;;;5004800;28;20060;-87
2021/01/21 23:32:55;;;;;;;13.45;4.70;;;3.00;98.40;;;;;;5009365;28;20265;-87
2021/01/21 23:35:21;;;;;;;16.65;4.30;;;3.00;98.30;;;;;;4998745;28;20025;-87
2021/01/21 23:37:47;;;;;;;10.93;4.18;;;2.90;98.30;;;;;;5017920;28;20030;-87
2021/01/21 23:40:13;;;;;;;20.75;5.05;;;2.90;98.30;;;;;;5017265;28;20037;-88
2021/01/21 23:42:39;;;;;;;19.30;5.28;;;2.90;98.60;;;;;;5004512;28;20041;-86
2021/01/21 23:45:05;;;;;;;14.43;4.45;;;2.80;98.30;;;;;;5000687;28;20022;-86
2021/01/21 23:47:31;;;;;;;11.50;4.38;;;2.80;98.30;;;;;;5000680;28;20044;-87
2021/01/21 23:49:57;;;;;;;18.63;5.35;;;2.60;98.20;;;;;;5008909;28;20022;-87
2021/01/21 23:52:23;;;;;;;12.30;5.07;;;2.50;98.20;;;;;;5005888;28;20054;-88
2021/01/21 23:54:49;;;;;;;14.68;5.57;;;2.50;98.90;;;;;;4994848;28;20018;-87
2021/01/21 23:57:14;;;;;;;12.55;4.90;;;2.50;99.00;;;;;;5020966;28;20026;-88
2021/01/21 23:59:40;;;;;;;11.85;5.15;;;2.50;99.00;;;;;;5014978;28;20470;-86
